createdAt,value
2023-05-22T00:00:35.803Z,100361.49
2023-05-22T00:03:07.055Z,100360.41
2023-05-22T00:05:39.422Z,100360.59
2023-05-22T00:08:11.777Z,100358.58
2023-05-22T00:10:42.434Z,100358.34
2023-05-22T00:13:13.435Z,100355.24
2023-05-22T00:15:44.189Z,100355.04
2023-05-22T00:18:15.027Z,100351.77
2023-05-22T00:20:46.558Z,100354.30
2023-05-22T00:23:17.343Z,100350.11
2023-05-22T00:25:47.971Z,100352.05
2023-05-22T00:28:18.811Z,100347.70
2023-05-22T00:30:50.104Z,100348.30
2023-05-22T00:33:20.784Z,100344.80
2023-05-22T00:35:51.588Z,100344.40
2023-05-22T00:38:33.259Z,100338.77
2023-05-22T00:41:05.934Z,100339.73
2023-05-22T00:43:36.945Z,100337.33
2023-05-22T00:46:07.989Z,100334.08
2023-05-22T00:48:38.882Z,100335.02
2023-05-22T00:51:10.029Z,100331.15
2023-05-22T00:53:40.948Z,100333.52
2023-05-22T00:56:12.389Z,100332.34
2023-05-22T00:58:43.769Z,100333.91
2023-05-22T01:01:15.591Z,100329.60
2023-05-22T01:03:47.885Z,100331.89
2023-05-22T01:06:21.597Z,100332.95
2023-05-22T01:08:52.234Z,100334.67
2023-05-22T01:11:32.741Z,100339.73
2023-05-22T01:14:10.907Z,100337.05
2023-05-22T01:16:51.928Z,100338.48
2023-05-22T01:19:47.695Z,100336.58
2023-05-22T01:22:43.315Z,100341.28
2023-05-22T01:25:32.436Z,100342.79
2023-05-22T01:28:20.031Z,100348.16
2023-05-22T01:30:57.763Z,100349.41
2023-05-22T01:33:29.605Z,100349.16
2023-05-22T01:36:03.986Z,100349.28
2023-05-22T01:38:35.579Z,100347.54
2023-05-22T01:41:07.546Z,100351.15
2023-05-22T01:43:39.963Z,100349.53
2023-05-22T01:46:11.051Z,100350.90
2023-05-22T01:48:41.867Z,100349.15
2023-05-22T01:51:17.465Z,100348.11
2023-05-22T01:53:53.120Z,100346.36
2023-05-22T01:56:31.812Z,100348.70
2023-05-22T01:59:08.093Z,100353.14
2023-05-22T02:01:40.671Z,100356.92
2023-05-22T02:04:14.263Z,100352.37
2023-05-22T02:06:47.652Z,100349.10
2023-05-22T02:09:19.503Z,100347.76
2023-05-22T02:11:51.559Z,100347.77
2023-05-22T02:14:23.355Z,100348.31
2023-05-22T02:16:55.024Z,100353.13
2023-05-22T02:19:25.832Z,100351.15
2023-05-22T02:21:56.721Z,100349.04
2023-05-22T02:24:27.562Z,100346.92
2023-05-22T02:26:58.376Z,100344.81
2023-05-22T02:29:29.207Z,100344.17
2023-05-22T02:32:00.409Z,100338.79
2023-05-22T02:34:32.020Z,100343.05
2023-05-22T02:37:04.234Z,100338.63
2023-05-22T02:39:35.196Z,100333.33
2023-05-22T02:42:06.592Z,100334.34
2023-05-22T02:44:37.415Z,100336.58
2023-05-22T02:47:09.627Z,100333.16
2023-05-22T02:49:40.404Z,100330.91
2023-05-22T02:52:11.341Z,100328.55
2023-05-22T02:54:42.023Z,100330.11
2023-05-22T02:57:12.729Z,100329.13
2023-05-22T02:59:44.374Z,100327.83
2023-05-22T03:02:15.422Z,100325.73
2023-05-22T03:04:46.528Z,100326.48
2023-05-22T03:07:17.157Z,100326.30
2023-05-22T03:09:47.991Z,100323.34
2023-05-22T03:12:18.892Z,100324.75
2023-05-22T03:14:49.640Z,100323.73
2023-05-22T03:17:20.435Z,100316.70
2023-05-22T03:19:51.459Z,100317.89
2023-05-22T03:22:23.168Z,100316.40
2023-05-22T03:24:54.037Z,100315.96
2023-05-22T03:27:24.706Z,100311.11
2023-05-22T03:29:55.459Z,100313.60
2023-05-22T03:32:27.267Z,100311.41
2023-05-22T03:34:59.772Z,100309.16
2023-05-22T03:37:30.513Z,100310.46
2023-05-22T03:40:01.429Z,100309.60
2023-05-22T03:42:34.198Z,100310.56
2023-05-22T03:45:05.851Z,100309.75
2023-05-22T03:47:36.725Z,100313.16
2023-05-22T03:50:08.626Z,100311.09
2023-05-22T03:52:39.543Z,100307.85
2023-05-22T03:55:12.134Z,100306.95
2023-05-22T03:57:44.079Z,100309.89
2023-05-22T04:00:19.650Z,100307.40
2023-05-22T04:02:50.612Z,100303.27
2023-05-22T04:05:21.814Z,100307.16
2023-05-22T04:07:53.920Z,100306.08
2023-05-22T04:10:25.111Z,100305.25
2023-05-22T04:12:55.965Z,100303.34
2023-05-22T04:15:28.737Z,100306.45
2023-05-22T04:17:59.720Z,100307.05
2023-05-22T04:20:33.452Z,100304.85
2023-05-22T04:23:04.162Z,100307.90
2023-05-22T04:25:36.470Z,100309.42
2023-05-22T04:28:05.660Z,100310.02
2023-05-22T04:30:40.350Z,100308.92
2023-05-22T04:33:12.820Z,100304.13
2023-05-22T04:35:44.426Z,100309.50
2023-05-22T04:38:16.099Z,100309.75
2023-05-22T04:40:47.800Z,100311.39
2023-05-22T04:43:19.786Z,100312.58
2023-05-22T04:45:51.648Z,100313.16
2023-05-22T04:48:22.727Z,100313.56
2023-05-22T04:50:54.279Z,100314.38
2023-05-22T04:53:25.307Z,100311.09
2023-05-22T04:55:57.112Z,100313.95
2023-05-22T04:58:28.333Z,100313.84
2023-05-22T05:00:59.497Z,100306.23
2023-05-22T05:03:31.261Z,100303.48
2023-05-22T05:06:03.063Z,100305.85
2023-05-22T05:08:33.978Z,100302.56
2023-05-22T05:11:04.852Z,100301.08
2023-05-22T05:13:37.485Z,100303.70
2023-05-22T05:16:09.201Z,100301.30
2023-05-22T05:18:40.596Z,100299.23
2023-05-22T05:21:11.373Z,100298.70
2023-05-22T05:23:42.523Z,100301.77
2023-05-22T05:26:13.246Z,100302.16
2023-05-22T05:28:44.126Z,100301.01
2023-05-22T05:31:15.234Z,100303.00
2023-05-22T05:34:18.651Z,100307.46
2023-05-22T05:36:57.391Z,100302.42
2023-05-22T05:39:29.660Z,100309.98
2023-05-22T05:42:02.122Z,100309.67
2023-05-22T05:44:33.155Z,100308.56
2023-05-22T05:47:04.084Z,100314.10
2023-05-22T05:49:35.969Z,100309.26
2023-05-22T05:52:09.250Z,100307.54
2023-05-22T05:54:46.596Z,100307.93
2023-05-22T05:57:19.453Z,100310.34
2023-05-22T05:59:50.504Z,100310.14
2023-05-22T06:02:40.437Z,100309.48
2023-05-22T06:05:13.620Z,100300.29
2023-05-22T06:07:43.606Z,100302.35
2023-05-22T06:10:15.551Z,100300.70
2023-05-22T06:13:02.542Z,100297.20
2023-05-22T06:15:33.773Z,100290.75
2023-05-22T06:18:05.535Z,100296.31
2023-05-22T06:20:34.908Z,100295.60
2023-05-22T06:23:06.179Z,100285.46
2023-05-22T06:25:37.461Z,100295.80
2023-05-22T06:28:08.477Z,100289.58
2023-05-22T06:30:43.580Z,100287.58
2023-05-22T06:33:18.026Z,100289.94
2023-05-22T06:35:49.551Z,100290.14
2023-05-22T06:38:20.744Z,100289.36
2023-05-22T06:40:51.823Z,100286.68
2023-05-22T06:43:26.637Z,100286.89
2023-05-22T06:46:05.588Z,100283.67
2023-05-22T06:48:44.783Z,100283.79
2023-05-22T06:51:26.530Z,100282.69
2023-05-22T06:54:07.168Z,100281.06
2023-05-22T06:56:39.667Z,100280.82
2023-05-22T06:59:12.853Z,100285.71
2023-05-22T07:02:02.380Z,100283.15
2023-05-22T07:04:39.157Z,100285.52
2023-05-22T07:07:12.860Z,100280.88
2023-05-22T07:09:43.643Z,100278.82
2023-05-22T07:12:14.619Z,100278.60
2023-05-22T07:14:45.488Z,100274.27
2023-05-22T07:17:17.003Z,100271.98
2023-05-22T07:19:48.186Z,100263.61
2023-05-22T07:22:18.981Z,100263.23
2023-05-22T07:24:51.340Z,100264.45
2023-05-22T07:27:22.456Z,100261.80
2023-05-22T07:29:53.517Z,100258.96
2023-05-22T07:32:24.843Z,100256.88
2023-05-22T07:34:56.687Z,100258.04
2023-05-22T07:37:27.566Z,100255.06
2023-05-22T07:39:58.476Z,100252.50
2023-05-22T07:42:30.289Z,100253.03
2023-05-22T07:45:02.276Z,100249.97
2023-05-22T07:47:33.009Z,100248.48
2023-05-22T07:50:05.284Z,100249.61
2023-05-22T07:52:36.736Z,100242.94
2023-05-22T07:55:09.532Z,100245.49
2023-05-22T07:57:41.662Z,100246.21
2023-05-22T08:00:21.098Z,100241.74
2023-05-22T08:02:52.149Z,100238.82
2023-05-22T08:05:23.363Z,100236.06
2023-05-22T08:07:54.160Z,100236.85
2023-05-22T08:10:26.463Z,100230.13
2023-05-22T08:12:58.628Z,100228.33
2023-05-22T08:15:29.482Z,100229.73
2023-05-22T08:18:00.558Z,100229.03
2023-05-22T08:20:31.597Z,100226.77
2023-05-22T08:23:02.559Z,100225.73
2023-05-22T08:25:33.405Z,100225.57
2023-05-22T08:28:04.175Z,100225.30
2023-05-22T08:30:37.392Z,100219.61
2023-05-22T08:33:08.344Z,100221.02
2023-05-22T08:35:39.393Z,100218.20
2023-05-22T08:38:10.161Z,100213.93
2023-05-22T08:40:43.874Z,100214.41
2023-05-22T08:43:17.061Z,100212.66
2023-05-22T08:45:49.066Z,100214.40
2023-05-22T08:48:23.188Z,100214.33
2023-05-22T08:50:58.338Z,100210.83
2023-05-22T08:53:32.622Z,100209.22
2023-05-22T08:56:06.165Z,100207.03
2023-05-22T08:58:38.605Z,100202.91
2023-05-22T09:01:09.938Z,100201.90
2023-05-22T09:03:40.878Z,100199.52
2023-05-22T09:06:12.742Z,100195.57
2023-05-22T09:08:44.274Z,100195.56
2023-05-22T09:11:14.926Z,100187.79
2023-05-22T09:13:45.753Z,100184.27
2023-05-22T09:16:16.888Z,100185.86
2023-05-22T09:18:47.779Z,100194.65
2023-05-22T09:21:29.707Z,100186.66
2023-05-22T09:24:03.786Z,100188.70
2023-05-22T09:26:35.436Z,100192.70
2023-05-22T09:29:05.358Z,100188.36
2023-05-22T09:31:43.819Z,100192.81
2023-05-22T09:34:15.658Z,100188.02
2023-05-22T09:36:46.704Z,100186.52
2023-05-22T09:39:17.823Z,100184.84
2023-05-22T09:41:48.627Z,100187.43
2023-05-22T09:44:19.409Z,100191.42
2023-05-22T09:46:50.054Z,100194.94
2023-05-22T09:49:20.889Z,100195.14
2023-05-22T09:51:52.931Z,100191.05
2023-05-22T09:54:26.272Z,100190.16
2023-05-22T09:57:01.695Z,100191.54
2023-05-22T09:59:34.324Z,100189.93
2023-05-22T10:02:05.093Z,100184.70
2023-05-22T10:04:36.734Z,100192.36
2023-05-22T10:07:11.618Z,100186.71
2023-05-22T10:09:43.322Z,100184.16
2023-05-22T10:12:16.553Z,100183.10
2023-05-22T10:14:47.607Z,100184.79
2023-05-22T10:17:18.532Z,100183.97
2023-05-22T10:19:50.095Z,100177.52
2023-05-22T10:22:22.696Z,100178.14
2023-05-22T10:24:54.374Z,100180.69
2023-05-22T10:27:25.240Z,100171.90
2023-05-22T10:30:03.840Z,100172.19
2023-05-22T10:32:41.443Z,100173.84
2023-05-22T10:35:21.838Z,100167.52
2023-05-22T10:37:55.970Z,100171.81
2023-05-22T10:40:31.122Z,100171.83
2023-05-22T10:43:04.103Z,100175.28
2023-05-22T10:45:36.802Z,100169.06
2023-05-22T10:48:09.890Z,100174.20
2023-05-22T10:50:41.733Z,100167.36
2023-05-22T10:53:24.303Z,100161.95
2023-05-22T10:55:56.854Z,100158.21
2023-05-22T10:58:32.172Z,100155.90
2023-05-22T11:01:14.746Z,100153.05
2023-05-22T11:03:56.603Z,100159.63
2023-05-22T11:06:42.397Z,100150.63
2023-05-22T11:09:32.702Z,100141.64
2023-05-22T11:12:18.137Z,100144.13
2023-05-22T11:14:53.478Z,100140.66
2023-05-22T11:17:29.659Z,100130.36
2023-05-22T11:20:06.353Z,100135.08
2023-05-22T11:22:40.024Z,100131.38
2023-05-22T11:25:13.059Z,100132.00
2023-05-22T11:27:44.274Z,100129.48
2023-05-22T11:30:15.879Z,100130.13
2023-05-22T11:32:45.896Z,100123.55
2023-05-22T11:35:19.476Z,100118.55
2023-05-22T11:37:51.796Z,100123.15
2023-05-22T11:40:24.506Z,100116.19
2023-05-22T11:42:55.557Z,100112.54
2023-05-22T11:45:26.700Z,100108.58
2023-05-22T11:47:58.270Z,100111.58
2023-05-22T11:50:41.144Z,100103.87
2023-05-22T11:53:12.963Z,100105.05
2023-05-22T11:55:45.051Z,100104.29
2023-05-22T11:58:18.004Z,100102.00
2023-05-22T12:00:48.848Z,100107.42
2023-05-22T12:03:19.729Z,100098.35
2023-05-22T12:05:53.195Z,100100.73
2023-05-22T12:08:24.285Z,100094.60
2023-05-22T12:10:56.148Z,100105.41
2023-05-22T12:13:29.156Z,100097.44
2023-05-22T12:16:01.401Z,100096.28
2023-05-22T12:18:37.969Z,100099.96
2023-05-22T12:21:11.651Z,100091.30
2023-05-22T12:23:51.156Z,100089.63
2023-05-22T12:26:22.299Z,100087.98
2023-05-22T12:28:56.791Z,100078.05
2023-05-22T12:31:28.121Z,100086.86
2023-05-22T12:33:59.588Z,100071.36
2023-05-22T12:36:39.429Z,100073.19
2023-05-22T12:39:11.874Z,100068.76
2023-05-22T12:41:42.870Z,100065.00
2023-05-22T12:44:14.184Z,100070.29
2023-05-22T12:46:45.185Z,100070.95
2023-05-22T12:49:15.979Z,100069.16
2023-05-22T12:51:46.598Z,100070.40
2023-05-22T12:54:17.333Z,100065.34
2023-05-22T12:56:48.015Z,100064.09
2023-05-22T12:59:20.695Z,100063.70
2023-05-22T13:01:51.631Z,100063.22
2023-05-22T13:04:22.594Z,100058.72
2023-05-22T13:06:53.353Z,100054.15
2023-05-22T13:09:24.237Z,100049.16
2023-05-22T13:11:54.992Z,100061.30
2023-05-22T13:14:25.815Z,100048.45
2023-05-22T13:16:56.604Z,100045.86
2023-05-22T13:19:27.400Z,100051.59
2023-05-22T13:21:58.173Z,100047.37
2023-05-22T13:24:28.942Z,100038.75
2023-05-22T13:26:59.577Z,100041.17
2023-05-22T13:29:30.228Z,100041.89
2023-05-22T13:32:01.531Z,100041.90
2023-05-22T13:34:32.308Z,100047.34
2023-05-22T13:37:03.482Z,100041.48
2023-05-22T13:39:34.543Z,100033.24
2023-05-22T13:42:06.489Z,100028.02
2023-05-22T13:44:37.584Z,100026.55
2023-05-22T13:47:08.590Z,100029.99
2023-05-22T13:49:39.479Z,100022.91
2023-05-22T13:52:10.533Z,100024.55
2023-05-22T13:54:41.651Z,100023.00
2023-05-22T13:57:12.594Z,100019.44
2023-05-22T13:59:43.343Z,100019.00
2023-05-22T14:02:14.023Z,100013.71
2023-05-22T14:04:47.000Z,100010.70
2023-05-22T14:07:19.187Z,100009.17
2023-05-22T14:09:50.038Z,100012.08
2023-05-22T14:12:20.836Z,100005.23
2023-05-22T14:14:52.169Z,100002.96
2023-05-22T14:17:22.902Z,100001.90
2023-05-22T14:19:53.705Z,100002.23
2023-05-22T14:22:24.491Z,99998.49
2023-05-22T14:24:55.112Z,99996.96
2023-05-22T14:27:26.014Z,99992.38
2023-05-22T14:29:56.760Z,99989.58
2023-05-22T14:32:27.582Z,99996.04
2023-05-22T14:34:58.306Z,99995.34
2023-05-22T14:37:29.025Z,99998.02
2023-05-22T14:39:59.734Z,99991.10
2023-05-22T14:42:30.428Z,99994.24
2023-05-22T14:45:01.204Z,99998.88
2023-05-22T14:47:31.896Z,99993.14
2023-05-22T14:50:14.855Z,99985.30
2023-05-22T14:52:50.654Z,99982.20
2023-05-22T14:55:21.791Z,99989.22
2023-05-22T14:57:52.748Z,99982.41
2023-05-22T15:00:24.165Z,99984.09
2023-05-22T15:02:55.221Z,99980.73
2023-05-22T15:05:26.962Z,99974.23
2023-05-22T15:07:58.686Z,99978.64
2023-05-22T15:10:29.534Z,99978.46
2023-05-22T15:13:00.249Z,99979.46
2023-05-22T15:15:31.077Z,99979.24
2023-05-22T15:18:04.760Z,99970.86
2023-05-22T15:20:35.511Z,99961.04
2023-05-22T15:23:06.516Z,99963.01
2023-05-22T15:25:37.544Z,99960.18
2023-05-22T15:28:08.308Z,99958.69
2023-05-22T15:30:41.838Z,99957.05
2023-05-22T15:33:12.847Z,99963.60
2023-05-22T15:35:46.688Z,99963.41
2023-05-22T15:38:17.556Z,99958.94
2023-05-22T15:40:48.345Z,99960.52
2023-05-22T15:43:19.763Z,99958.59
2023-05-22T15:45:51.229Z,99960.05
2023-05-22T15:48:22.030Z,99955.91
2023-05-22T15:50:52.911Z,99958.16
2023-05-22T15:53:23.617Z,99954.00
2023-05-22T15:55:54.696Z,99952.09
2023-05-22T15:58:25.472Z,99950.27
2023-05-22T16:00:56.437Z,99940.33
2023-05-22T16:03:27.458Z,99939.59
2023-05-22T16:05:58.248Z,99935.43
2023-05-22T16:08:28.951Z,99935.23
2023-05-22T16:11:01.568Z,99944.46
2023-05-22T16:13:32.974Z,99937.03
2023-05-22T16:16:05.934Z,99933.94
2023-05-22T16:18:36.778Z,99933.18
2023-05-22T16:21:08.350Z,99935.55
2023-05-22T16:23:39.091Z,99928.99
2023-05-22T16:26:09.931Z,99933.14
2023-05-22T16:28:40.581Z,99932.04
2023-05-22T16:31:13.005Z,99931.34
2023-05-22T16:33:43.805Z,99934.71
2023-05-22T16:36:14.704Z,99925.40
2023-05-22T16:38:45.963Z,99927.77
2023-05-22T16:41:16.705Z,99927.01
2023-05-22T16:43:47.701Z,99925.66
2023-05-22T16:46:19.471Z,99921.35
2023-05-22T16:48:50.587Z,99919.21
2023-05-22T16:51:21.424Z,99923.11
2023-05-22T16:53:52.424Z,99921.30
2023-05-22T16:56:23.248Z,99927.65
2023-05-22T16:58:54.044Z,99929.51
2023-05-22T17:01:25.221Z,99918.66
2023-05-22T17:03:56.792Z,99922.86
2023-05-22T17:06:29.299Z,99916.63
2023-05-22T17:09:00.167Z,99914.39
2023-05-22T17:11:31.038Z,99918.89
2023-05-22T17:14:01.851Z,99916.03
2023-05-22T17:16:33.432Z,99911.39
2023-05-22T17:19:04.210Z,99915.80
2023-05-22T17:21:35.318Z,99911.63
2023-05-22T17:24:06.551Z,99914.80
2023-05-22T17:26:37.509Z,99912.67
2023-05-22T17:29:08.894Z,99911.50
2023-05-22T17:31:39.913Z,99909.84
2023-05-22T17:34:10.705Z,99917.02
2023-05-22T17:36:43.294Z,99920.05
2023-05-22T17:39:15.647Z,99923.64
2023-05-22T17:41:46.355Z,99921.97
2023-05-22T17:44:17.167Z,99920.50
2023-05-22T17:46:49.401Z,99926.63
2023-05-22T17:49:20.130Z,99923.53
2023-05-22T17:51:51.656Z,99924.23
2023-05-22T17:54:22.429Z,99927.15
2023-05-22T17:56:55.009Z,99929.20
2023-05-22T17:59:25.784Z,99928.05
2023-05-22T18:01:56.560Z,99930.73
2023-05-22T18:04:27.266Z,99935.17
2023-05-22T18:06:58.097Z,99932.89
2023-05-22T18:09:28.860Z,99933.77
2023-05-22T18:12:02.421Z,99937.58
2023-05-22T18:14:33.189Z,99936.10
2023-05-22T18:17:04.669Z,99937.14
2023-05-22T18:19:35.555Z,99936.61
2023-05-22T18:22:06.553Z,99934.16
2023-05-22T18:24:38.208Z,99931.77
2023-05-22T18:27:09.134Z,99932.44
2023-05-22T18:29:40.764Z,99929.22
2023-05-22T18:32:13.565Z,99923.27
2023-05-22T18:34:44.276Z,99923.70
2023-05-22T18:37:15.056Z,99920.33
2023-05-22T18:39:45.801Z,99924.69
2023-05-22T18:42:17.051Z,99926.10
2023-05-22T18:44:48.997Z,99927.58
2023-05-22T18:47:20.298Z,99931.34
2023-05-22T18:49:51.034Z,99932.21
2023-05-22T18:52:21.852Z,99934.51
2023-05-22T18:54:52.641Z,99938.11
2023-05-22T18:57:23.421Z,99938.31
2023-05-22T18:59:54.091Z,99935.23
2023-05-22T19:02:25.116Z,99937.33
2023-05-22T19:04:56.105Z,99940.64
2023-05-22T19:07:27.006Z,99944.81
2023-05-22T19:09:57.846Z,99946.80
2023-05-22T19:12:31.718Z,99948.68
2023-05-22T19:15:03.074Z,99951.54
2023-05-22T19:17:33.986Z,99953.13
2023-05-22T19:20:07.377Z,99956.23
2023-05-22T19:22:38.201Z,99955.55
2023-05-22T19:25:10.701Z,99959.38
2023-05-22T19:27:41.391Z,99957.45
2023-05-22T19:30:16.534Z,99958.75
2023-05-22T19:32:49.722Z,99956.48
2023-05-22T19:35:20.520Z,99958.09
2023-05-22T19:37:51.740Z,99959.17
2023-05-22T19:40:22.593Z,99956.52
2023-05-22T19:42:53.562Z,99962.77
2023-05-22T19:45:25.956Z,99964.04
2023-05-22T19:47:58.546Z,99966.16
2023-05-22T19:50:29.252Z,99970.06
2023-05-22T19:52:59.957Z,99965.67
2023-05-22T19:55:31.326Z,99966.50
2023-05-22T19:58:02.045Z,99973.75
2023-05-22T20:00:33.426Z,99970.80
2023-05-22T20:03:04.398Z,99977.05
2023-05-22T20:05:35.421Z,99975.04
2023-05-22T20:08:07.624Z,99978.69
2023-05-22T20:10:38.569Z,99976.65
2023-05-22T20:13:09.571Z,99974.73
2023-05-22T20:15:42.723Z,99972.16
2023-05-22T20:18:14.427Z,99969.10
2023-05-22T20:20:45.268Z,99964.48
2023-05-22T20:23:16.151Z,99965.21
2023-05-22T20:25:46.890Z,99958.07
2023-05-22T20:28:17.662Z,99959.26
2023-05-22T20:30:48.499Z,99960.59
2023-05-22T20:33:19.486Z,99962.56
2023-05-22T20:35:52.863Z,99963.30
2023-05-22T20:38:23.977Z,99963.98
2023-05-22T20:40:54.897Z,99962.66
2023-05-22T20:43:26.255Z,99959.54
2023-05-22T20:45:57.201Z,99959.52
2023-05-22T20:48:27.891Z,99959.63
2023-05-22T20:50:58.641Z,99955.66
2023-05-22T20:53:29.340Z,99955.64
2023-05-22T20:56:00.053Z,99955.66
2023-05-22T20:58:30.919Z,99952.45
2023-05-22T21:01:01.629Z,99946.27
2023-05-22T21:03:32.490Z,99941.08
2023-05-22T21:06:03.555Z,99941.59
2023-05-22T21:08:34.314Z,99940.47
2023-05-22T21:11:06.862Z,99946.38
2023-05-22T21:13:37.694Z,99945.61
2023-05-22T21:16:09.435Z,99941.96
2023-05-22T21:18:40.143Z,99945.58
2023-05-22T21:21:10.951Z,99944.68
2023-05-22T21:23:41.883Z,99942.54
2023-05-22T21:26:12.756Z,99937.38
2023-05-22T21:28:44.876Z,99933.09
2023-05-22T21:31:15.812Z,99936.88
2023-05-22T21:33:46.676Z,99938.46
2023-05-22T21:36:17.555Z,99940.16
2023-05-22T21:38:48.563Z,99937.85
2023-05-22T21:41:19.216Z,99932.70
2023-05-22T21:43:50.038Z,99931.72
2023-05-22T21:46:22.512Z,99935.86
2023-05-22T21:48:53.683Z,99936.52
2023-05-22T21:51:24.469Z,99938.25
2023-05-22T21:53:55.475Z,99935.46
2023-05-22T21:56:26.347Z,99930.90
2023-05-22T21:58:56.997Z,99928.58
2023-05-22T22:01:27.801Z,99932.09
2023-05-22T22:03:58.774Z,99934.73
2023-05-22T22:06:29.603Z,99936.36
2023-05-22T22:09:00.351Z,99932.45
2023-05-22T22:11:31.160Z,99938.94
2023-05-22T22:14:02.073Z,99942.67
2023-05-22T22:16:35.994Z,99944.23
2023-05-22T22:19:07.280Z,99947.23
2023-05-22T22:21:38.388Z,99945.34
2023-05-22T22:24:09.380Z,99940.52
2023-05-22T22:26:40.137Z,99938.83
2023-05-22T22:29:11.045Z,99940.41
2023-05-22T22:31:42.088Z,99941.41
2023-05-22T22:34:12.862Z,99938.25
2023-05-22T22:36:43.874Z,99936.08
2023-05-22T22:39:14.836Z,99944.95
2023-05-22T22:41:46.685Z,99952.05
2023-05-22T22:44:17.601Z,99950.96
2023-05-22T22:46:48.501Z,99950.48
2023-05-22T22:49:21.861Z,99951.02
2023-05-22T22:51:52.698Z,99944.99
2023-05-22T22:54:23.510Z,99950.63
2023-05-22T22:56:54.781Z,99946.06
2023-05-22T22:59:25.668Z,99946.77
2023-05-22T23:01:56.530Z,99947.59
2023-05-22T23:04:28.443Z,99943.14
2023-05-22T23:06:59.625Z,99938.02
2023-05-22T23:09:30.450Z,99937.38
2023-05-22T23:12:01.286Z,99933.10
2023-05-22T23:14:32.071Z,99934.16
2023-05-22T23:17:02.703Z,99927.56
2023-05-22T23:19:33.663Z,99910.88
2023-05-22T23:22:04.535Z,99903.20
2023-05-22T23:24:35.379Z,99906.58
2023-05-22T23:27:06.708Z,99905.18
2023-05-22T23:29:37.445Z,99906.66
2023-05-22T23:32:08.516Z,99908.80
2023-05-22T23:34:39.316Z,99909.36
2023-05-22T23:37:10.555Z,99911.55
2023-05-22T23:39:41.425Z,99912.20
2023-05-22T23:42:12.198Z,99904.55
2023-05-22T23:44:43.103Z,99910.96
2023-05-22T23:47:13.919Z,99909.00
2023-05-22T23:49:44.784Z,99910.23
2023-05-22T23:52:15.593Z,99906.52
2023-05-22T23:54:46.315Z,99907.02
2023-05-22T23:57:17.269Z,99915.10
2023-05-22T23:59:48.043Z,99919.48
